createdAt,value
2018-09-30T00:02:11.770Z,98671.23
2018-09-30T00:05:16.219Z,98670.92
2018-09-30T00:08:20.660Z,98670.48
2018-09-30T00:11:25.115Z,98675.57
2018-09-30T00:14:29.634Z,98669.34
2018-09-30T00:17:34.084Z,98677.71
2018-09-30T00:20:38.534Z,98680.66
2018-09-30T00:23:48.187Z,98676.46
2018-09-30T00:26:59.005Z,98675.45
2018-09-30T00:30:03.660Z,98666.28
2018-09-30T00:33:08.414Z,98659.25
2018-09-30T00:36:12.898Z,98653.84
2018-09-30T00:39:17.302Z,98658.05
2018-09-30T00:42:21.759Z,98651.05
2018-09-30T00:45:26.203Z,98639.89
2018-09-30T00:48:30.622Z,98646.04
2018-09-30T00:51:35.137Z,98635.11
2018-09-30T00:54:39.603Z,98636.00
2018-09-30T00:57:44.038Z,98635.73
2018-09-30T01:00:48.498Z,98636.48
2018-09-30T01:03:52.961Z,98636.48
2018-09-30T01:06:57.437Z,98634.78
2018-09-30T01:10:01.929Z,98636.95
2018-09-30T01:13:06.699Z,98627.48
2018-09-30T01:16:11.418Z,98628.48
2018-09-30T01:19:15.876Z,98626.38
2018-09-30T01:22:20.323Z,98632.95
2018-09-30T01:25:24.818Z,98629.42
2018-09-30T01:28:29.253Z,98622.91
2018-09-30T01:31:33.710Z,98615.73
2018-09-30T01:34:38.155Z,98623.55
2018-09-30T01:37:42.578Z,98625.48
2018-09-30T01:40:47.026Z,98625.05
2018-09-30T01:43:51.449Z,98620.45
2018-09-30T01:46:55.884Z,98613.06
2018-09-30T01:50:00.362Z,98614.08
2018-09-30T01:53:04.823Z,98609.36
2018-09-30T01:56:09.250Z,98607.02
2018-09-30T01:59:13.669Z,98608.46
2018-09-30T02:02:18.114Z,98605.50
2018-09-30T02:05:22.638Z,98595.90
2018-09-30T02:08:27.055Z,98596.77
2018-09-30T02:11:31.481Z,98593.92
2018-09-30T02:14:35.894Z,98592.05
2018-09-30T02:17:40.334Z,98585.63
2018-09-30T02:20:44.762Z,98583.33
2018-09-30T02:23:49.170Z,98576.25
2018-09-30T02:26:53.590Z,98585.77
2018-09-30T02:29:57.993Z,98576.22
2018-09-30T02:33:02.474Z,98574.02
2018-09-30T02:36:06.931Z,98576.42
2018-09-30T02:39:11.354Z,98574.45
2018-09-30T02:42:15.786Z,98566.80
2018-09-30T02:45:20.210Z,98564.48
2018-09-30T02:48:24.650Z,98567.00
2018-09-30T02:51:29.103Z,98559.89
2018-09-30T02:54:33.563Z,98554.24
2018-09-30T02:57:37.982Z,98546.59
2018-09-30T03:00:42.487Z,98549.98
2018-09-30T03:03:46.902Z,98547.86
2018-09-30T03:06:56.597Z,98550.04
2018-09-30T03:10:01.126Z,98545.14
2018-09-30T03:13:05.565Z,98544.35
2018-09-30T03:16:09.993Z,98541.29
2018-09-30T03:19:14.901Z,98539.36
2018-09-30T03:22:19.329Z,98537.27
2018-09-30T03:25:23.785Z,98531.31
2018-09-30T03:28:28.206Z,98532.88
2018-09-30T03:31:32.615Z,98532.46
2018-09-30T03:34:37.050Z,98529.98
2018-09-30T03:37:41.490Z,98528.07
2018-09-30T03:40:45.935Z,98540.68
2018-09-30T03:43:50.429Z,98531.25
2018-09-30T03:46:54.842Z,98528.95
2018-09-30T03:49:59.265Z,98522.52
2018-09-30T03:53:03.706Z,98514.27
2018-09-30T03:56:08.187Z,98521.24
2018-09-30T03:59:12.642Z,98508.27
2018-09-30T04:02:17.052Z,98507.18
2018-09-30T04:05:21.481Z,98514.50
2018-09-30T04:08:25.911Z,98520.13
2018-09-30T04:11:30.309Z,98517.65
2018-09-30T04:14:34.739Z,98519.44
2018-09-30T04:17:39.150Z,98509.61
2018-09-30T04:20:43.618Z,98505.22
2018-09-30T04:23:48.054Z,98496.30
2018-09-30T04:26:52.459Z,98493.14
2018-09-30T04:29:56.882Z,98487.27
2018-09-30T04:33:01.311Z,98487.20
2018-09-30T04:36:05.748Z,98485.36
2018-09-30T04:39:10.474Z,98484.55
2018-09-30T04:42:14.874Z,98477.20
2018-09-30T04:45:19.305Z,98478.43
2018-09-30T04:48:23.738Z,98477.78
2018-09-30T04:51:28.210Z,98474.88
2018-09-30T04:54:32.847Z,98472.16
2018-09-30T04:57:37.293Z,98481.34
2018-09-30T05:00:41.726Z,98483.70
2018-09-30T05:03:46.154Z,98479.69
2018-09-30T05:06:50.605Z,98470.63
2018-09-30T05:09:55.046Z,98467.97
2018-09-30T05:12:59.521Z,98463.78
2018-09-30T05:16:03.985Z,98452.72
2018-09-30T05:19:08.466Z,98453.37
2018-09-30T05:22:12.882Z,98456.73
2018-09-30T05:25:17.362Z,98453.51
2018-09-30T05:28:21.782Z,98453.87
2018-09-30T05:31:26.290Z,98455.52
2018-09-30T05:34:30.747Z,98453.30
2018-09-30T05:37:35.161Z,98454.63
2018-09-30T05:40:39.623Z,98457.62
2018-09-30T05:43:44.037Z,98460.36
2018-09-30T05:46:48.490Z,98452.80
2018-09-30T05:49:52.923Z,98455.27
2018-09-30T05:52:57.348Z,98454.14
2018-09-30T05:56:01.794Z,98453.94
2018-09-30T05:59:06.282Z,98453.34
2018-09-30T06:02:10.707Z,98454.55
2018-09-30T06:05:15.139Z,98448.21
2018-09-30T06:08:19.546Z,98449.70
2018-09-30T06:11:23.994Z,98455.42
2018-09-30T06:14:28.407Z,98446.94
2018-09-30T06:17:33.715Z,98438.28
2018-09-30T06:20:38.259Z,98444.30
2018-09-30T06:23:42.763Z,98448.02
2018-09-30T06:26:47.256Z,98432.14
2018-09-30T06:29:51.695Z,98436.14
2018-09-30T06:32:56.130Z,98426.66
2018-09-30T06:36:00.594Z,98425.05
2018-09-30T06:39:07.999Z,98432.04
2018-09-30T06:42:12.459Z,98431.80
2018-09-30T06:45:17.004Z,98434.35
2018-09-30T06:48:21.432Z,98427.95
2018-09-30T06:51:25.883Z,98436.33
2018-09-30T06:54:30.687Z,98426.38
2018-09-30T06:57:35.130Z,98429.02
2018-09-30T07:00:39.573Z,98425.91
2018-09-30T07:03:44.059Z,98429.84
2018-09-30T07:06:48.541Z,98429.72
2018-09-30T07:09:59.652Z,98434.33
2018-09-30T07:13:04.098Z,98432.59
2018-09-30T07:16:08.524Z,98434.46
2018-09-30T07:19:12.954Z,98434.81
2018-09-30T07:22:17.443Z,98439.61
2018-09-30T07:25:21.826Z,98432.63
2018-09-30T07:28:26.291Z,98427.54
2018-09-30T07:31:30.739Z,98434.98
2018-09-30T07:34:35.271Z,98431.82
2018-09-30T07:37:39.720Z,98427.80
2018-09-30T07:40:44.170Z,98435.58
2018-09-30T07:43:48.622Z,98425.68
2018-09-30T07:46:53.167Z,98426.20
2018-09-30T07:49:57.592Z,98430.79
2018-09-30T07:53:02.130Z,98425.42
2018-09-30T07:56:06.570Z,98428.38
2018-09-30T07:59:11.004Z,98421.92
2018-09-30T08:02:15.487Z,98421.66
2018-09-30T08:05:19.909Z,98423.27
2018-09-30T08:08:24.345Z,98423.00
2018-09-30T08:11:28.775Z,98422.97
2018-09-30T08:14:33.222Z,98413.79
2018-09-30T08:17:37.670Z,98414.08
2018-09-30T08:20:42.164Z,98414.58
2018-09-30T08:23:46.626Z,98410.49
2018-09-30T08:26:51.104Z,98408.05
2018-09-30T08:29:55.651Z,98400.80
2018-09-30T08:33:00.166Z,98400.97
2018-09-30T08:36:08.535Z,98398.15
2018-09-30T08:39:13.046Z,98396.75
2018-09-30T08:42:17.491Z,98398.55
2018-09-30T08:45:21.905Z,98400.75
2018-09-30T08:48:26.589Z,98396.69
2018-09-30T08:51:31.009Z,98396.80
2018-09-30T08:54:35.435Z,98399.91
2018-09-30T08:57:39.862Z,98404.64
2018-09-30T09:00:44.377Z,98401.61
2018-09-30T09:03:48.821Z,98397.22
2018-09-30T09:06:53.238Z,98394.91
2018-09-30T09:09:57.775Z,98390.02
2018-09-30T09:13:02.175Z,98390.50
2018-09-30T09:16:06.599Z,98386.14
2018-09-30T09:19:11.026Z,98372.36
2018-09-30T09:22:15.499Z,98373.98
2018-09-30T09:25:19.958Z,98374.77
2018-09-30T09:28:24.395Z,98373.78
2018-09-30T09:31:28.869Z,98367.76
2018-09-30T09:34:33.259Z,98357.72
2018-09-30T09:37:38.335Z,98352.48
2018-09-30T09:40:42.802Z,98351.42
2018-09-30T09:43:47.326Z,98341.52
2018-09-30T09:46:51.805Z,98346.92
2018-09-30T09:49:56.298Z,98336.35
2018-09-30T09:53:00.737Z,98329.27
2018-09-30T09:56:05.163Z,98319.32
2018-09-30T09:59:09.661Z,98314.06
2018-09-30T10:02:14.182Z,98306.16
2018-09-30T10:05:19.221Z,98306.98
2018-09-30T10:08:23.691Z,98303.02
2018-09-30T10:11:28.169Z,98302.36
2018-09-30T10:14:32.606Z,98299.94
2018-09-30T10:17:37.061Z,98294.00
2018-09-30T10:20:41.483Z,98293.11
2018-09-30T10:23:45.910Z,98292.42
2018-09-30T10:26:50.331Z,98295.66
2018-09-30T10:29:54.812Z,98290.61
2018-09-30T10:32:59.338Z,98290.59
2018-09-30T10:36:03.793Z,98286.97
2018-09-30T10:39:10.328Z,98278.77
2018-09-30T10:42:14.687Z,98272.88
2018-09-30T10:45:19.157Z,98263.09
2018-09-30T10:48:23.612Z,98254.17
2018-09-30T10:51:28.024Z,98251.89
2018-09-30T10:54:32.463Z,98250.30
2018-09-30T10:57:36.878Z,98249.95
2018-09-30T11:00:41.314Z,98243.41
2018-09-30T11:03:45.827Z,98241.14
2018-09-30T11:06:50.351Z,98232.73
2018-09-30T11:09:54.849Z,98232.15
2018-09-30T11:12:59.293Z,98225.67
2018-09-30T11:16:03.859Z,98217.83
2018-09-30T11:19:08.305Z,98221.67
2018-09-30T11:22:12.776Z,98208.56
2018-09-30T11:25:17.266Z,98211.94
2018-09-30T11:28:21.725Z,98198.53
2018-09-30T11:31:26.251Z,98197.81
2018-09-30T11:34:30.692Z,98196.55
2018-09-30T11:37:35.106Z,98193.73
2018-09-30T11:40:39.623Z,98184.38
2018-09-30T11:43:44.038Z,98180.56
2018-09-30T11:46:48.480Z,98180.77
2018-09-30T11:49:52.910Z,98174.09
2018-09-30T11:52:57.327Z,98172.36
2018-09-30T11:56:01.822Z,98161.73
2018-09-30T11:59:06.331Z,98155.58
2018-09-30T12:02:10.832Z,98152.38
2018-09-30T12:05:15.320Z,98150.91
2018-09-30T12:08:19.845Z,98147.68
2018-09-30T12:11:24.341Z,98135.69
2018-09-30T12:14:28.878Z,98127.61
2018-09-30T12:17:33.407Z,98118.98
2018-09-30T12:20:37.905Z,98118.23
2018-09-30T12:23:42.346Z,98113.89
2018-09-30T12:26:46.858Z,98106.77
2018-09-30T12:29:51.320Z,98097.29
2018-09-30T12:32:55.895Z,98096.59
2018-09-30T12:36:00.609Z,98090.05
2018-09-30T12:39:07.024Z,98088.04
2018-09-30T12:42:11.442Z,98087.55
2018-09-30T12:45:16.087Z,98081.47
2018-09-30T12:48:20.885Z,98078.04
2018-09-30T12:51:25.430Z,98076.84
2018-09-30T12:54:29.943Z,98076.67
2018-09-30T12:57:34.398Z,98073.03
2018-09-30T13:00:38.831Z,98063.33
2018-09-30T13:03:43.357Z,98065.94
2018-09-30T13:06:47.884Z,98057.59
2018-09-30T13:09:52.410Z,98060.41
2018-09-30T13:12:59.053Z,98052.89
2018-09-30T13:16:03.559Z,98052.13
2018-09-30T13:19:08.019Z,98048.42
2018-09-30T13:22:12.450Z,98046.16
2018-09-30T13:25:16.909Z,98043.63
2018-09-30T13:28:21.354Z,98039.52
2018-09-30T13:31:25.813Z,98041.81
2018-09-30T13:34:30.262Z,98028.94
2018-09-30T13:37:34.702Z,98024.08
2018-09-30T13:40:39.404Z,98024.16
2018-09-30T13:43:43.803Z,98027.69
2018-09-30T13:46:48.357Z,98015.92
2018-09-30T13:49:52.956Z,98018.67
2018-09-30T13:52:57.513Z,98008.42
2018-09-30T13:56:01.978Z,97999.45
2018-09-30T13:59:06.477Z,97996.29
2018-09-30T14:02:10.947Z,97995.04
2018-09-30T14:05:15.410Z,97985.88
2018-09-30T14:08:19.937Z,97989.16
2018-09-30T14:11:24.595Z,97983.91
2018-09-30T14:14:29.030Z,97985.22
2018-09-30T14:17:34.332Z,97981.25
2018-09-30T14:20:38.784Z,97977.18
2018-09-30T14:23:43.384Z,97971.77
2018-09-30T14:26:47.848Z,97974.57
2018-09-30T14:29:52.259Z,97968.96
2018-09-30T14:32:56.697Z,97971.44
2018-09-30T14:36:01.121Z,97967.59
2018-09-30T14:39:09.807Z,97972.56
2018-09-30T14:42:14.230Z,97968.61
2018-09-30T14:45:18.666Z,97970.08
2018-09-30T14:48:23.232Z,97960.22
2018-09-30T14:51:27.526Z,97962.08
2018-09-30T14:54:32.077Z,97962.98
2018-09-30T14:57:36.454Z,97959.19
2018-09-30T15:00:40.979Z,97962.72
2018-09-30T15:03:45.975Z,97944.49
2018-09-30T15:06:50.535Z,97952.19
2018-09-30T15:09:55.046Z,97952.89
2018-09-30T15:12:59.571Z,97944.43
2018-09-30T15:16:05.075Z,97944.71
2018-09-30T15:19:09.609Z,97939.94
2018-09-30T15:22:14.030Z,97945.97
2018-09-30T15:25:18.510Z,97936.91
2018-09-30T15:28:23.036Z,97932.03
2018-09-30T15:31:27.470Z,97927.50
2018-09-30T15:34:31.911Z,97930.48
2018-09-30T15:37:36.317Z,97923.48
2018-09-30T15:40:40.858Z,97929.39
2018-09-30T15:43:45.301Z,97925.41
2018-09-30T15:46:49.764Z,97926.44
2018-09-30T15:49:54.200Z,97924.88
2018-09-30T15:52:58.614Z,97927.70
2018-09-30T15:56:03.075Z,97931.80
2018-09-30T15:59:07.570Z,97934.52
2018-09-30T16:02:11.994Z,97929.17
2018-09-30T16:05:16.468Z,97930.30
2018-09-30T16:08:20.891Z,97931.08
2018-09-30T16:11:25.385Z,97928.91
2018-09-30T16:14:29.912Z,97924.58
2018-09-30T16:17:34.895Z,97919.45
2018-09-30T16:20:39.395Z,97917.12
2018-09-30T16:23:43.818Z,97917.23
2018-09-30T16:26:48.312Z,97911.31
2018-09-30T16:29:52.761Z,97921.45
2018-09-30T16:32:57.170Z,97923.80
2018-09-30T16:36:01.646Z,97918.27
2018-09-30T16:39:08.423Z,97920.31
2018-09-30T16:42:12.922Z,97915.06
2018-09-30T16:45:17.386Z,97917.59
2018-09-30T16:48:21.902Z,97919.92
2018-09-30T16:51:26.473Z,97914.80
2018-09-30T16:54:30.991Z,97919.52
2018-09-30T16:57:35.526Z,97917.47
2018-09-30T17:00:39.984Z,97919.48
2018-09-30T17:03:44.573Z,97915.28
2018-09-30T17:06:49.091Z,97929.08
2018-09-30T17:09:53.545Z,97925.28
2018-09-30T17:12:58.006Z,97933.94
2018-09-30T17:16:02.494Z,97921.77
2018-09-30T17:19:06.962Z,97927.97
2018-09-30T17:22:11.413Z,97937.66
2018-09-30T17:25:15.998Z,97940.11
2018-09-30T17:28:20.479Z,97936.80
2018-09-30T17:31:24.923Z,97940.11
2018-09-30T17:34:29.318Z,97940.16
2018-09-30T17:37:33.783Z,97924.70
2018-09-30T17:40:38.261Z,97924.80
2018-09-30T17:43:42.687Z,97937.78
2018-09-30T17:46:47.168Z,97935.50
2018-09-30T17:49:51.743Z,97937.25
2018-09-30T17:52:56.186Z,97931.22
2018-09-30T17:56:00.642Z,97934.41
2018-09-30T17:59:05.098Z,97936.33
2018-09-30T18:02:09.550Z,97939.77
2018-09-30T18:05:13.982Z,97948.97
2018-09-30T18:08:18.433Z,97947.44
2018-09-30T18:11:22.877Z,97947.33
2018-09-30T18:14:27.591Z,97947.02
2018-09-30T18:17:32.055Z,97952.98
2018-09-30T18:20:36.482Z,97949.48
2018-09-30T18:23:41.045Z,97942.97
2018-09-30T18:26:45.507Z,97947.44
2018-09-30T18:29:49.941Z,97953.55
2018-09-30T18:32:54.929Z,97955.08
2018-09-30T18:35:59.478Z,97953.41
2018-09-30T18:39:04.859Z,97947.33
2018-09-30T18:42:09.368Z,97943.45
2018-09-30T18:45:13.804Z,97935.91
2018-09-30T18:48:18.295Z,97939.32
2018-09-30T18:51:22.803Z,97934.38
2018-09-30T18:54:27.319Z,97938.93
2018-09-30T18:57:32.133Z,97939.95
2018-09-30T19:00:36.561Z,97931.12
2018-09-30T19:03:41.263Z,97932.55
2018-09-30T19:06:45.738Z,97935.56
2018-09-30T19:09:50.452Z,97930.91
2018-09-30T19:12:54.998Z,97933.82
2018-09-30T19:15:59.924Z,97932.25
2018-09-30T19:19:04.706Z,97925.73
2018-09-30T19:22:09.426Z,97923.45
2018-09-30T19:25:14.101Z,97928.00
2018-09-30T19:28:18.607Z,97928.95
2018-09-30T19:31:23.038Z,97930.80
2018-09-30T19:34:27.482Z,97920.20
2018-09-30T19:37:32.241Z,97927.17
2018-09-30T19:40:37.576Z,97918.80
2018-09-30T19:43:42.151Z,97924.74
2018-09-30T19:46:46.606Z,97917.52
2018-09-30T19:49:51.231Z,97924.97
2018-09-30T19:52:55.706Z,97920.08
2018-09-30T19:56:00.232Z,97917.55
2018-09-30T19:59:05.107Z,97918.66
2018-09-30T20:02:09.803Z,97918.73
2018-09-30T20:05:14.270Z,97917.00
2018-09-30T20:08:18.745Z,97919.54
2018-09-30T20:11:23.389Z,97918.88
2018-09-30T20:14:27.827Z,97922.53
2018-09-30T20:17:32.727Z,97917.78
2018-09-30T20:20:37.265Z,97913.59
2018-09-30T20:23:41.730Z,97915.30
2018-09-30T20:26:46.166Z,97906.02
2018-09-30T20:29:50.783Z,97916.66
2018-09-30T20:32:55.354Z,97918.51
2018-09-30T20:35:59.834Z,97916.16
2018-09-30T20:39:06.351Z,97916.86
2018-09-30T20:42:10.831Z,97912.02
2018-09-30T20:45:15.274Z,97920.09
2018-09-30T20:48:19.746Z,97908.01
2018-09-30T20:51:24.214Z,97911.23
2018-09-30T20:54:28.690Z,97909.11
2018-09-30T20:57:33.110Z,97907.70
2018-09-30T21:00:37.670Z,97909.53
2018-09-30T21:03:42.109Z,97909.65
2018-09-30T21:06:46.772Z,97899.73
2018-09-30T21:09:51.326Z,97903.22
2018-09-30T21:12:55.820Z,97902.00
2018-09-30T21:16:00.987Z,97915.72
2018-09-30T21:19:05.562Z,97912.19
2018-09-30T21:22:09.974Z,97899.58
2018-09-30T21:25:14.419Z,97900.71
2018-09-30T21:28:18.891Z,97902.89
2018-09-30T21:31:23.338Z,97899.16
2018-09-30T21:34:27.778Z,97894.80
2018-09-30T21:37:32.258Z,97889.92
2018-09-30T21:40:36.769Z,97882.72
2018-09-30T21:43:41.194Z,97884.99
2018-09-30T21:46:45.634Z,97884.09
2018-09-30T21:49:50.095Z,97876.72
2018-09-30T21:52:54.555Z,97870.50
2018-09-30T21:55:59.030Z,97868.73
2018-09-30T21:59:03.460Z,97864.30
2018-09-30T22:02:07.917Z,97868.02
2018-09-30T22:05:12.369Z,97873.50
2018-09-30T22:08:16.814Z,97863.69
2018-09-30T22:11:21.264Z,97873.52
2018-09-30T22:14:25.688Z,97866.31
2018-09-30T22:17:30.119Z,97869.41
2018-09-30T22:20:34.561Z,97876.21
2018-09-30T22:23:38.966Z,97867.31
2018-09-30T22:26:43.426Z,97867.64
2018-09-30T22:29:47.875Z,97865.17
2018-09-30T22:32:52.338Z,97852.19
2018-09-30T22:35:56.770Z,97851.59
2018-09-30T22:39:01.216Z,97844.02
2018-09-30T22:42:05.671Z,97842.57
2018-09-30T22:45:10.179Z,97836.28
2018-09-30T22:48:14.595Z,97838.59
2018-09-30T22:51:19.027Z,97839.29
2018-09-30T22:54:23.430Z,97838.89
2018-09-30T22:57:27.915Z,97846.30
2018-09-30T23:00:32.350Z,97850.28
2018-09-30T23:03:36.775Z,97842.63
2018-09-30T23:06:41.208Z,97844.80
2018-09-30T23:09:45.671Z,97836.73
2018-09-30T23:12:50.176Z,97832.01
2018-09-30T23:15:54.618Z,97834.95
2018-09-30T23:18:59.058Z,97827.04
2018-09-30T23:22:03.534Z,97832.80
2018-09-30T23:25:08.034Z,97833.41
2018-09-30T23:28:12.499Z,97828.06
2018-09-30T23:31:16.983Z,97827.23
2018-09-30T23:34:21.665Z,97839.63
2018-09-30T23:37:26.102Z,97857.67
2018-09-30T23:40:30.534Z,97863.58
2018-09-30T23:43:35.011Z,97865.73
2018-09-30T23:46:39.508Z,97866.66
2018-09-30T23:49:43.942Z,97866.95
2018-09-30T23:52:48.388Z,97869.03
2018-09-30T23:55:52.801Z,97878.30
2018-09-30T23:58:57.298Z,97878.69
